Time;durP1;ratioP1;P1;durP2;ratioP2;P2;SDS_P1;SDS_P2;PMS_P1;PMS_P2;Temp;Humidity;BMP_temperature;BMP_pressure;BME280_temperature;BME280_humidity;BME280_pressure;Samples;Min_cycle;Max_cycle;Signal;HPM_P1;HPM_P2
2022/06/06 00:00:04;;;;;;;4.53;2.63;;;16.40;85.10;;;15.15;100.00;96150.69;5008416;28;20067;-66
2022/06/06 00:02:30;;;;;;;4.93;2.90;;;16.40;85.20;;;15.13;100.00;96150.91;4997325;28;20739;-67
2022/06/06 00:04:57;;;;;;;6.20;2.60;;;16.30;85.20;;;15.12;100.00;96151.94;4995023;28;20040;-67
2022/06/06 00:07:25;;;;;;;6.88;2.95;;;16.40;85.20;;;15.11;100.00;96142.38;4998165;28;20045;-66
2022/06/06 00:09:51;;;;;;;4.75;3.05;;;16.40;85.20;;;15.11;100.00;96147.66;5009218;28;20053;-67
2022/06/06 00:12:17;;;;;;;6.85;2.90;;;16.30;85.30;;;15.08;100.00;96140.16;5018230;28;20354;-66
2022/06/06 00:14:43;;;;;;;8.90;2.60;;;16.30;85.30;;;15.06;100.00;96142.22;5009559;28;20073;-67
2022/06/06 00:17:09;;;;;;;6.78;2.80;;;16.30;85.30;;;15.02;100.00;96133.09;5010713;28;20033;-66
2022/06/06 00:19:35;;;;;;;4.97;2.88;;;16.30;85.30;;;14.99;100.00;96138.81;4983638;28;20093;-66
2022/06/06 00:22:01;;;;;;;6.45;2.60;;;16.20;85.40;;;15.00;100.00;96140.44;5045828;28;20033;-67
2022/06/06 00:24:27;;;;;;;5.70;2.90;;;16.20;85.30;;;15.00;100.00;96140.44;4996076;28;20411;-67
2022/06/06 00:26:52;;;;;;;4.75;2.50;;;16.20;85.40;;;14.97;100.00;96135.56;5026260;28;20064;-67
2022/06/06 00:29:19;;;;;;;4.03;2.42;;;16.20;85.30;;;14.96;100.00;96136.59;5006874;28;20050;-66
2022/06/06 00:37:15;;;;;;;5.30;2.70;;;16.10;85.50;;;14.89;100.00;96157.81;5015864;28;20782;-67
2022/06/06 00:39:41;;;;;;;5.78;2.33;;;16.10;85.50;;;14.89;100.00;96159.66;5028821;28;20069;-66
2022/06/06 00:42:19;;;;;;;4.05;2.60;;;16.10;85.50;;;14.87;100.00;96161.72;5030418;28;20075;-66
2022/06/06 00:44:45;;;;;;;5.68;2.50;;;16.10;85.50;;;14.85;100.00;96169.06;5012997;28;20052;-66
2022/06/06 00:47:24;;;;;;;4.22;2.38;;;16.10;85.40;;;14.85;100.00;96174.34;4992988;28;20429;-66
2022/06/06 00:50:02;;;;;;;5.80;2.70;;;16.10;85.50;;;14.83;100.00;96165.81;4999256;28;20049;-66
2022/06/06 00:52:31;;;;;;;5.13;2.75;;;16.10;85.40;;;14.84;100.00;96162.13;5009294;28;20046;-66
2022/06/06 00:54:59;;;;;;;4.22;2.70;;;16.00;85.30;;;14.82;100.00;96164.19;4992930;28;20116;-67
2022/06/06 00:57:29;;;;;;;4.30;2.60;;;16.10;85.40;;;14.82;100.00;96166.84;4975579;28;20044;-66
2022/06/06 00:59:55;;;;;;;5.50;3.22;;;16.10;85.30;;;14.79;100.00;96169.91;5005518;28;20621;-67
2022/06/06 01:02:21;;;;;;;4.13;2.42;;;16.00;85.40;;;14.77;100.00;96166.69;5007210;28;20041;-66
2022/06/06 01:04:46;;;;;;;4.63;2.80;;;16.00;85.50;;;14.75;100.00;96163.44;5005927;28;20077;-66
2022/06/06 01:07:12;;;;;;;4.00;2.40;;;16.00;85.60;;;14.75;100.00;96158.94;4997902;28;20032;-66
2022/06/06 01:09:39;;;;;;;7.45;2.30;;;16.00;85.60;;;14.75;100.00;96166.06;5012403;28;20061;-66
2022/06/06 01:12:11;;;;;;;5.43;2.78;;;16.00;85.50;;;14.77;100.00;96167.47;5000839;28;20041;-67
2022/06/06 01:14:40;;;;;;;4.72;2.38;;;16.00;85.50;;;14.77;100.00;96167.47;5018940;28;20120;-68
2022/06/06 01:17:34;;;;;;;4.97;2.47;;;16.10;85.60;;;14.79;100.00;96169.91;5006519;28;20081;-67
2022/06/06 01:20:43;;;;;;;6.43;2.53;;;16.00;85.40;;;14.76;100.00;96170.34;5019245;28;20042;-66
2022/06/06 01:23:53;;;;;;;4.03;2.47;;;16.00;85.40;;;14.72;100.00;96166.50;4970529;28;20045;-67
2022/06/06 01:26:49;;;;;;;3.33;2.58;;;15.90;85.50;;;14.69;100.00;96173.81;5005680;28;20034;-66
2022/06/06 01:29:24;;;;;;;3.90;2.47;;;15.90;85.70;;;14.67;100.00;96164.47;5026140;28;20041;-66
2022/06/06 01:31:57;;;;;;;9.02;2.72;;;15.90;85.60;;;14.68;100.00;96166.91;5004506;28;20029;-66
2022/06/06 01:34:27;;;;;;;5.40;2.60;;;16.00;85.60;;;14.66;100.00;96171.59;5011442;28;20116;-66
2022/06/06 01:36:54;;;;;;;5.95;2.70;;;15.90;85.40;;;14.68;100.00;96163.44;4990741;28;20041;-66
2022/06/06 01:39:28;;;;;;;9.27;3.08;;;16.00;85.30;;;14.67;100.00;96170.59;5009685;28;20459;-66
2022/06/06 01:42:15;;;;;;;6.57;2.70;;;15.90;85.30;;;14.65;100.00;96172.63;4991815;28;20492;-66
2022/06/06 01:45:06;;;;;;;4.57;2.63;;;15.90;85.40;;;14.62;100.00;96169.59;4999028;28;20042;-66
2022/06/06 01:47:42;;;;;;;4.60;2.95;;;15.90;85.20;;;14.59;100.00;96172.69;4978553;28;20047;-66
2022/06/06 01:50:08;;;;;;;7.40;3.00;;;15.70;85.40;;;14.54;100.00;96177.81;4998394;28;20076;-67
2022/06/06 01:52:56;;;;;;;3.75;2.72;;;15.70;85.60;;;14.51;100.00;96168.44;5001825;28;20029;-65
2022/06/06 01:55:23;;;;;;;4.95;2.97;;;15.70;85.70;;;14.50;100.00;96182.72;5011576;28;20177;-66
2022/06/06 01:57:49;;;;;;;3.88;2.83;;;15.70;85.60;;;14.48;100.00;96171.50;5029560;28;20037;-66
2022/06/06 02:00:16;;;;;;;4.75;3.05;;;15.70;85.50;;;14.50;100.00;96177.41;5004292;28;20079;-66
2022/06/06 02:02:43;;;;;;;6.85;3.42;;;15.70;85.70;;;14.49;100.00;96170.50;5032246;28;20909;-66
2022/06/06 02:05:11;;;;;;;9.35;2.70;;;15.70;85.60;;;14.50;100.00;96176.59;5023230;28;20163;-66
2022/06/06 02:07:39;;;;;;;4.50;3.13;;;15.70;85.60;;;14.49;100.00;96170.50;5023861;28;20112;-66
2022/06/06 02:10:08;;;;;;;7.93;3.20;;;15.80;85.40;;;14.49;100.00;96170.50;5007420;28;20042;-66
2022/06/06 02:12:34;;;;;;;3.88;2.60;;;15.80;85.40;;;14.50;100.00;96166.81;5033208;28;20063;-66
2022/06/06 02:15:00;;;;;;;4.80;2.70;;;15.80;85.40;;;14.49;100.00;96164.41;5040547;28;20400;-66
2022/06/06 02:17:25;;;;;;;7.72;3.00;;;15.70;85.30;;;14.49;100.00;96169.69;5008121;28;20491;-66
2022/06/06 02:19:51;;;;;;;3.83;2.88;;;15.80;85.20;;;14.48;100.00;96166.19;5013719;28;20125;-66
2022/06/06 02:22:17;;;;;;;4.75;2.92;;;15.70;85.10;;;14.47;100.00;96166.41;4985244;28;20034;-66
2022/06/06 02:24:42;;;;;;;4.28;2.72;;;15.70;85.00;;;14.47;100.00;96166.41;5016580;28;20038;-67
2022/06/06 02:27:09;;;;;;;6.38;3.15;;;15.70;85.00;;;14.45;100.00;96166.63;5012588;28;20099;-66
2022/06/06 02:29:35;;;;;;;4.72;2.95;;;15.70;85.00;;;14.43;100.00;96166.03;5011459;28;20061;-67
2022/06/06 02:32:01;;;;;;;6.13;3.13;;;15.70;84.90;;;14.43;100.00;96173.13;4997591;28;20041;-66
2022/06/06 02:34:27;;;;;;;6.15;3.88;;;15.70;84.80;;;14.41;100.00;96170.69;5025167;28;20041;-65
2022/06/06 02:36:52;;;;;;;6.20;3.05;;;15.70;84.80;;;14.39;100.00;96175.38;5026114;28;20462;-66
2022/06/06 02:39:18;;;;;;;6.80;3.33;;;15.60;84.80;;;14.39;100.00;96175.38;5009922;28;20455;-66
2022/06/06 02:41:44;;;;;;;5.72;2.97;;;15.60;84.90;;;14.37;100.00;96172.16;5011149;28;20048;-67
2022/06/06 02:44:10;;;;;;;5.57;2.83;;;15.60;85.00;;;14.35;100.00;96171.53;5013766;28;20091;-66
2022/06/06 02:46:35;;;;;;;6.18;2.95;;;15.60;85.10;;;14.36;100.00;96175.81;4999135;28;20032;-67
2022/06/06 02:49:01;;;;;;;4.65;3.03;;;15.60;85.40;;;14.35;100.00;96182.13;5008349;28;20034;-66
2022/06/06 02:51:27;;;;;;;3.53;3.15;;;15.60;85.40;;;14.35;100.00;96184.78;5016754;28;20095;-66
2022/06/06 02:53:53;;;;;;;5.45;3.17;;;15.60;85.40;;;14.33;100.00;96182.34;5030196;28;20511;-66
2022/06/06 02:56:18;;;;;;;5.00;3.22;;;15.60;85.20;;;14.32;100.00;96185.19;5014485;28;20465;-66
2022/06/06 02:58:44;;;;;;;9.70;3.50;;;15.60;85.30;;;14.31;100.00;96192.31;5007162;28;20077;-66
2022/06/06 03:01:10;;;;;;;4.78;3.03;;;15.60;85.20;;;14.30;100.00;96192.53;5002069;28;20123;-66
2022/06/06 03:03:36;;;;;;;7.45;2.95;;;15.60;85.40;;;14.28;100.00;96186.66;5024771;28;20160;-67
2022/06/06 03:06:05;;;;;;;6.57;3.30;;;15.60;85.40;;;14.27;100.00;96200.91;5032960;28;20399;-66
2022/06/06 03:09:11;;;;;;;5.50;3.30;;;15.60;85.40;;;14.23;100.00;96199.66;5006906;28;20084;-66
2022/06/06 03:12:03;;;;;;;9.82;3.45;;;15.60;85.40;;;14.20;100.00;96197.44;5007292;28;20041;-67
2022/06/06 03:15:13;;;;;;;6.18;2.90;;;15.50;85.10;;;14.18;100.00;96205.59;4999253;28;20527;-67
2022/06/06 03:21:20;;;;;;;3.35;3.05;;;15.50;85.10;;;14.14;100.00;96209.69;4954972;28;20707;-66
2022/06/06 03:24:24;;;;;;;4.60;2.65;;;15.40;85.00;;;14.09;100.00;96212.94;5026187;28;20116;-66
2022/06/06 03:27:11;;;;;;;7.00;3.10;;;15.40;84.80;;;14.06;100.00;96213.38;5008635;28;20030;-66
2022/06/06 03:30:19;;;;;;;5.95;3.17;;;15.40;84.80;;;14.03;100.00;96212.94;5019591;28;20060;-65
2022/06/06 03:33:26;;;;;;;4.65;3.58;;;15.40;84.70;;;14.01;100.00;96221.09;5002769;28;20373;-66
2022/06/06 03:36:00;;;;;;;3.45;3.10;;;15.40;84.70;;;14.00;100.00;96230.03;4996634;28;20506;-67
2022/06/06 03:38:43;;;;;;;3.88;3.05;;;15.30;84.80;;;14.01;100.00;96234.31;5026993;28;20079;-67
2022/06/06 03:41:33;;;;;;;5.97;3.10;;;15.40;84.80;;;14.00;100.00;96230.03;5014462;28;20120;-66
2022/06/06 03:44:59;;;;;;;5.47;3.05;;;15.30;84.70;;;14.00;100.00;96235.34;5024522;28;20041;-66
2022/06/06 03:47:40;;;;;;;4.43;3.17;;;15.30;84.80;;;14.00;100.00;96242.47;4992065;28;20489;-66
2022/06/06 03:50:48;;;;;;;4.97;3.10;;;15.40;84.70;;;14.02;100.00;96238.59;5008362;28;20593;-65
2022/06/06 03:53:40;;;;;;;6.45;3.35;;;15.40;84.90;;;14.06;100.00;96233.72;5012899;28;20397;-66
2022/06/06 03:56:27;;;;;;;4.03;3.00;;;15.50;85.00;;;14.12;100.00;96237.38;5000983;28;20029;-66
2022/06/06 03:58:53;;;;;;;6.15;3.30;;;15.50;85.10;;;14.16;100.00;96242.03;5032611;28;20419;-66
2022/06/06 04:01:21;;;;;;;4.28;3.13;;;15.60;85.10;;;14.20;100.00;96240.59;5025079;28;20052;-67
2022/06/06 04:03:46;;;;;;;3.28;2.85;;;15.60;85.10;;;14.28;100.00;96250.97;5015416;28;20048;-67
2022/06/06 04:06:12;;;;;;;6.72;2.90;;;15.70;84.80;;;14.34;100.00;96241.38;4992294;28;20042;-66
2022/06/06 04:08:38;;;;;;;4.47;3.05;;;15.80;84.70;;;14.42;100.00;96246.41;4988221;28;20480;-68
2022/06/06 04:11:28;;;;;;;4.15;3.00;;;16.00;84.60;;;14.48;100.00;96240.31;5001669;28;20029;-67
2022/06/06 04:14:04;;;;;;;4.05;3.00;;;16.00;84.30;;;14.51;100.00;96252.34;5026712;28;20044;-67
2022/06/06 04:17:05;;;;;;;5.35;2.60;;;16.00;83.90;;;14.55;100.00;96253.53;5013263;28;20046;-66
2022/06/06 04:20:17;;;;;;;13.00;6.32;;;16.00;83.80;;;14.60;100.00;96256.38;4997432;28;20403;-66
2022/06/06 04:23:20;;;;;;;6.65;4.63;;;16.10;83.80;;;14.67;100.00;96249.19;5011868;28;20046;-67
2022/06/06 04:26:16;;;;;;;6.35;2.80;;;16.20;83.60;;;14.68;100.00;96248.97;5017693;28;20048;-66
2022/06/06 04:29:59;;;;;;;20.35;17.05;;;16.20;83.20;;;14.77;100.00;96254.06;5025510;28;20037;-66
2022/06/06 04:32:30;;;;;;;16.73;14.88;;;16.40;83.80;;;14.79;100.00;96238.78;4972676;28;20155;-70
2022/06/06 04:35:18;;;;;;;;;;;16.40;83.70;;;14.80;100.00;96233.25;5003186;28;20109;-66
2022/06/06 04:38:12;;;;;;;6.22;4.13;;;16.40;82.70;;;14.81;100.00;96232.22;5004590;28;19918;-67
2022/06/06 04:40:45;;;;;;;14.95;13.35;;;16.30;82.70;;;14.82;100.00;96233.03;5008872;28;20400;-66
2022/06/06 04:43:32;;;;;;;16.80;15.00;;;16.40;83.50;;;14.85;100.00;96233.44;5042187;28;20816;-68
2022/06/06 04:46:21;;;;;;;6.85;5.28;;;16.40;83.30;;;14.89;99.72;96231.16;5006498;28;20057;-68
2022/06/06 04:48:47;;;;;;;4.18;3.00;;;16.40;82.90;;;14.87;100.00;96241.16;5013733;28;20610;-67
2022/06/06 04:51:16;;;;;;;3.10;2.67;;;16.40;83.00;;;14.89;100.00;96244.41;5027414;28;20168;-66
2022/06/06 04:53:42;;;;;;;4.32;2.55;;;16.40;83.30;;;14.89;100.00;96236.47;5035372;28;20445;-68
2022/06/06 04:56:07;;;;;;;4.22;2.67;;;16.50;83.30;;;14.91;100.00;96237.06;5027334;28;20048;-68
2022/06/06 04:58:33;;;;;;;3.38;2.78;;;16.50;83.40;;;14.92;100.00;96238.69;5021823;28;20038;-67
2022/06/06 05:01:01;;;;;;;5.78;2.95;;;16.50;83.40;;;14.93;100.00;96235.00;5015167;28;20037;-67
2022/06/06 05:03:27;;;;;;;4.50;2.70;;;16.40;82.60;;;14.93;100.00;96240.31;4984555;28;20112;-67
2022/06/06 05:06:37;;;;;;;3.67;2.70;;;16.50;83.30;;;14.99;100.00;96244.78;5007634;28;20121;-66
2022/06/06 05:09:16;;;;;;;3.25;2.63;;;16.50;83.30;;;15.01;100.00;96246.19;5015453;28;20141;-66
2022/06/06 05:11:58;;;;;;;5.55;2.85;;;16.60;83.60;;;15.07;100.00;96247.16;5014251;28;20038;-67
2022/06/06 05:14:26;;;;;;;4.72;2.70;;;16.70;83.60;;;15.10;100.00;96244.06;5014539;28;20086;-68
2022/06/06 05:17:29;;;;;;;5.10;2.88;;;16.70;83.90;;;15.16;100.00;96237.94;5030593;28;20033;-66
2022/06/06 05:20:20;;;;;;;6.03;2.88;;;16.80;83.60;;;15.22;100.00;96242.38;4986420;28;20041;-67
2022/06/06 05:22:56;;;;;;;4.22;2.67;;;16.80;83.30;;;15.26;100.00;96245.41;5016958;28;20129;-66
2022/06/06 05:25:32;;;;;;;3.15;2.83;;;16.90;83.10;;;15.35;100.00;96253.91;4998115;28;20061;-66
2022/06/06 05:28:27;;;;;;;7.45;4.25;;;17.00;83.20;;;15.42;100.00;96244.09;5008655;28;20416;-66
2022/06/06 05:31:22;;;;;;;14.75;13.13;;;17.10;83.30;;;15.52;100.00;96249.69;5021766;28;20144;-67
2022/06/06 05:34:10;;;;;;;7.90;6.78;;;17.30;83.60;;;15.59;100.00;96250.47;5005326;28;20037;-67
2022/06/06 05:36:52;;;;;;;4.32;3.28;;;17.30;83.30;;;15.65;100.00;96252.28;5021884;28;20052;-67
2022/06/06 05:39:24;;;;;;;9.45;3.17;;;17.30;83.00;;;15.68;100.00;96267.78;5039684;28;20121;-71
2022/06/06 05:42:30;;;;;;;2.90;2.60;;;17.30;82.60;;;15.77;100.00;96265.66;4998026;28;20120;-70
2022/06/06 05:45:19;;;;;;;6.30;2.60;;;17.50;82.20;;;15.80;100.00;96252.75;5003632;28;20033;-72
2022/06/06 05:48:22;;;;;;;7.03;2.60;;;17.60;82.10;;;15.90;99.94;96260.22;5003330;28;20076;-67
2022/06/06 05:51:07;;;;;;;4.57;2.78;;;17.70;81.00;;;16.03;100.00;96268.06;5009524;28;20504;-68
2022/06/06 05:53:58;;;;;;;5.78;3.10;;;17.90;81.70;;;16.19;100.00;96269.34;5028346;28;20041;-68
2022/06/06 05:56:43;;;;;;;4.63;2.75;;;18.10;81.40;;;16.31;100.00;96264.94;5009446;28;20415;-67
2022/06/06 05:59:20;;;;;;;4.18;2.78;;;18.20;80.60;;;16.45;99.62;96269.06;5023420;28;20057;-68
2022/06/06 06:02:15;;;;;;;4.30;2.72;;;18.30;80.20;;;16.62;99.10;96271.94;5028152;28;20037;-67
2022/06/06 06:05:08;;;;;;;4.05;2.92;;;18.60;79.70;;;16.85;98.03;96258.00;5011165;28;20042;-68
2022/06/06 06:08:03;;;;;;;4.22;2.78;;;18.80;78.90;;;17.02;97.58;96258.19;5008996;28;21583;-66
2022/06/06 06:11:04;;;;;;;3.85;2.70;;;19.10;78.20;;;17.22;96.86;96260.56;5008240;28;20046;-67
2022/06/06 06:13:57;;;;;;;;;;;19.30;77.80;;;17.41;96.01;96260.25;5025057;28;20042;-70
2022/06/06 06:16:24;;;;;;;3.70;2.70;;;19.60;77.00;;;17.60;96.39;96253.00;5032166;28;19920;-63
2022/06/06 06:19:02;;;;;;;4.72;2.75;;;19.80;75.70;;;17.82;93.84;96249.81;5008620;28;20040;-66
2022/06/06 06:21:30;;;;;;;4.60;2.80;;;20.10;75.10;;;18.06;93.95;96256.78;5023685;28;20037;-68
2022/06/06 06:24:19;;;;;;;6.88;2.90;;;20.50;73.60;;;18.40;92.08;96259.66;4994926;28;20059;-65
2022/06/06 06:26:45;;;;;;;4.72;2.85;;;21.00;72.90;;;18.70;93.69;96264.81;5020811;28;21004;-67
2022/06/06 06:29:11;;;;;;;7.82;2.60;;;21.30;72.50;;;19.00;92.17;96257.41;5021017;28;20054;-66
2022/06/06 06:32:02;;;;;;;4.13;2.28;;;21.60;70.20;;;19.28;85.83;96259.28;5011695;28;20030;-68
2022/06/06 06:34:43;;;;;;;;;;;21.80;67.20;;;19.48;85.22;96253.50;5004982;28;20409;-66
2022/06/06 06:37:39;;;;;;;;;;;22.00;68.00;;;19.65;84.08;96267.66;5021795;28;19918;-68
2022/06/06 06:40:32;;;;;;;2.95;2.30;;;22.10;67.50;;;19.88;85.08;96256.84;5027141;28;19963;-65
2022/06/06 06:43:10;;;;;;;5.95;3.13;;;22.60;67.50;;;20.09;83.52;96260.63;5026973;28;20097;-66
2022/06/06 06:45:50;;;;;;;10.35;9.18;;;22.80;65.80;;;20.28;81.28;96255.00;4991601;28;20045;-67
2022/06/06 06:48:46;;;;;;;5.68;2.53;;;22.80;64.70;;;20.38;76.89;96257.84;5003375;28;20030;-66
2022/06/06 06:51:22;;;;;;;4.63;2.40;;;22.80;63.00;;;20.46;79.35;96262.78;4956562;28;20030;-67
2022/06/06 06:54:16;;;;;;;5.70;2.35;;;22.90;63.50;;;20.57;78.10;96256.50;4993683;28;20396;-67
2022/06/06 06:57:13;;;;;;;3.35;2.17;;;23.20;63.00;;;20.77;78.27;96254.06;5005441;28;20102;-69
2022/06/06 07:00:00;;;;;;;5.32;2.67;;;23.30;63.40;;;20.95;76.93;96257.50;5004008;28;20041;-65
2022/06/06 07:08:38;;;;;;;4.43;2.08;;;24.20;59.20;;;21.56;74.30;96242.09;5018892;28;20191;-65
2022/06/06 07:11:29;;;;;;;3.92;2.00;;;24.60;58.60;;;21.78;73.83;96250.84;5001133;28;20055;-64
2022/06/06 07:14:13;;;;;;;3.28;2.20;;;24.60;58.20;;;21.95;72.32;96256.88;5035187;28;20036;-65
2022/06/06 07:16:39;;;;;;;3.53;2.22;;;24.80;56.80;;;22.12;73.81;96247.88;5032444;28;20042;-63
2022/06/06 07:19:12;;;;;;;3.70;1.98;;;25.10;55.50;;;22.35;73.06;96244.81;5007462;28;20092;-62
2022/06/06 07:21:39;;;;;;;3.72;1.83;;;25.50;56.60;;;22.57;72.21;96250.81;5032571;28;20029;-65
2022/06/06 07:24:15;;;;;;;3.28;2.10;;;25.60;54.50;;;22.81;68.27;96253.06;5014988;28;20026;-64
2022/06/06 07:26:42;;;;;;;3.03;1.90;;;26.00;53.90;;;23.07;70.64;96252.13;5027207;28;20045;-65
2022/06/06 07:29:10;;;;;;;12.30;9.32;;;26.10;53.50;;;23.31;68.76;96247.09;5036968;28;20543;-65
2022/06/06 07:32:02;;;;;;;8.80;6.40;;;26.30;51.40;;;23.58;64.86;96246.09;5025428;28;20643;-64
2022/06/06 07:34:52;;;;;;;11.55;8.75;;;26.80;51.20;;;24.03;63.45;96245.28;4992289;28;20089;-65
2022/06/06 07:37:47;;;;;;;3.28;2.50;;;27.40;50.30;;;24.28;61.42;96245.25;5006629;28;20038;-62
2022/06/06 07:40:43;;;;;;;3.28;1.85;;;27.10;49.50;;;24.30;60.14;96245.78;5002060;28;20042;-66
2022/06/06 07:43:53;;;;;;;8.13;6.43;;;26.60;49.40;;;24.07;59.27;96251.72;4991551;28;20041;-69
2022/06/06 07:46:31;;;;;;;4.75;4.20;;;26.10;50.50;;;23.89;59.89;96252.25;4955925;28;20078;-65
2022/06/06 07:49:05;;;;;;;4.20;1.85;;;25.60;51.10;;;23.66;60.09;96249.03;5044877;28;20061;-66
2022/06/06 07:51:43;;;;;;;4.00;1.95;;;25.30;50.40;;;23.39;59.39;96259.19;5015334;28;20037;-70
2022/06/06 07:54:24;;;;;;;3.33;1.95;;;25.10;51.10;;;23.13;59.82;96256.44;4989825;28;20050;-65
2022/06/06 07:57:50;;;;;;;3.95;2.03;;;24.70;51.70;;;22.79;60.83;96260.56;5017293;28;20038;-66
2022/06/06 08:00:21;;;;;;;3.50;2.03;;;24.40;53.90;;;22.51;62.19;96262.59;5019569;28;20030;-65
2022/06/06 08:03:14;;;;;;;4.43;1.88;;;24.10;55.00;;;22.32;63.11;96256.06;5017831;28;20038;-65
2022/06/06 08:06:22;;;;;;;35.30;31.45;;;24.00;56.00;;;22.19;64.69;96261.88;5016173;28;20104;-66
2022/06/06 08:09:13;;;;;;;5.15;3.42;;;24.10;57.30;;;22.20;62.91;96252.78;5004986;28;20176;-66
2022/06/06 08:12:19;;;;;;;4.18;2.75;;;24.30;54.90;;;22.25;61.71;96247.44;5018631;28;20505;-70
2022/06/06 08:15:22;;;;;;;3.90;2.15;;;24.50;53.10;;;22.31;63.42;96254.44;5015768;28;20629;-68
2022/06/06 08:18:16;;;;;;;5.05;2.17;;;24.80;54.30;;;22.38;61.72;96246.97;5006403;28;20042;-68
2022/06/06 08:21:21;;;;;;;6.53;5.53;;;24.70;52.90;;;22.47;62.23;96255.34;5009299;28;20536;-68
2022/06/06 08:23:47;;;;;;;4.00;2.25;;;25.10;53.30;;;22.65;64.53;96249.53;4994700;28;20124;-67
2022/06/06 08:26:15;;;;;;;3.55;1.88;;;25.50;52.80;;;22.87;63.91;96247.50;4997512;28;20126;-68
2022/06/06 08:28:42;;;;;;;2.58;2.00;;;25.80;53.00;;;23.10;64.12;96254.28;4988327;28;20096;-67
2022/06/06 08:31:08;;;;;;;4.03;2.03;;;26.00;52.80;;;23.27;63.38;96255.91;4986617;28;20517;-68
2022/06/06 08:33:34;;;;;;;8.23;6.18;;;25.80;51.00;;;23.33;62.57;96253.00;5001054;28;20034;-69
2022/06/06 08:36:24;;;;;;;2.95;1.98;;;25.60;51.60;;;23.33;58.69;96249.50;5006311;28;20483;-69
2022/06/06 08:39:17;;;;;;;3.78;2.30;;;25.40;50.50;;;23.25;59.64;96244.66;5039729;28;20045;-68
2022/06/06 08:42:12;;;;;;;3.72;1.95;;;25.10;52.30;;;23.25;59.76;96241.97;5005553;28;20153;-68
2022/06/06 08:44:59;;;;;;;3.30;2.28;;;25.50;52.00;;;23.41;60.67;96235.56;5015026;28;20034;-68
2022/06/06 08:47:35;;;;;;;2.70;1.90;;;26.30;50.60;;;23.82;58.32;96244.47;4995221;28;20052;-67
2022/06/06 08:50:45;;;;;;;3.08;1.77;;;27.10;47.50;;;24.33;58.77;96242.56;5008126;28;20128;-68
2022/06/06 08:54:20;;;;;;;4.28;2.03;;;27.90;47.60;;;24.74;55.06;96237.06;5005673;28;20030;-68
2022/06/06 08:57:13;;;;;;;2.97;1.75;;;27.60;45.60;;;24.98;55.34;96243.41;5026223;28;20084;-67
2022/06/06 09:00:03;;;;;;;4.00;1.90;;;27.80;46.40;;;25.16;55.90;96242.00;5011056;28;20065;-67
2022/06/06 09:02:43;;;;;;;3.42;1.85;;;28.00;46.80;;;25.28;54.14;96241.66;5010738;28;20124;-68
2022/06/06 09:05:31;;;;;;;;;;;27.80;45.20;;;25.26;54.13;96238.44;5028238;28;20091;-67
2022/06/06 09:08:21;;;;;;;2.38;1.60;;;27.90;45.30;;;25.24;53.33;96237.91;5037851;28;19926;-68
2022/06/06 09:11:24;;;;;;;2.60;1.60;;;27.60;44.80;;;25.27;53.78;96240.03;5010111;28;20122;-69
2022/06/06 09:14:30;;;;;;;4.63;1.75;;;28.10;44.60;;;25.43;52.13;96235.38;5013130;28;20041;-67
2022/06/06 09:17:41;;;;;;;2.13;1.50;;;28.10;44.40;;;25.39;52.37;96232.44;5018980;28;20048;-68
2022/06/06 09:20:47;;;;;;;3.25;2.65;;;27.80;44.90;;;25.31;53.72;96224.94;4995459;28;20037;-67
2022/06/06 09:23:43;;;;;;;4.32;3.17;;;27.60;46.30;;;25.26;55.46;96224.97;5007005;28;20121;-67
2022/06/06 09:27:09;;;;;;;3.45;2.13;;;27.50;48.70;;;25.19;55.51;96221.78;5007430;28;20119;-67
2022/06/06 09:30:17;;;;;;;3.38;2.20;;;27.40;48.80;;;25.31;53.77;96230.31;4940160;28;20039;-68
2022/06/06 09:33:06;;;;;;;3.10;1.77;;;27.70;46.80;;;25.22;53.62;96223.91;4950985;28;20130;-68
2022/06/06 09:36:10;;;;;;;5.40;2.30;;;27.30;46.70;;;25.24;54.47;96224.44;5017271;28;20030;-68
2022/06/06 09:39:11;;;;;;;2.80;1.70;;;27.80;47.10;;;25.60;54.91;96211.53;5017988;28;20045;-67
2022/06/06 09:41:53;;;;;;;3.15;2.03;;;28.80;46.30;;;25.99;53.70;96214.19;5002620;28;20148;-71
2022/06/06 09:44:43;;;;;;;3.97;1.75;;;29.60;43.40;;;26.23;50.65;96212.31;4995569;28;20044;-69
2022/06/06 09:48:04;;;;;;;4.82;1.90;;;29.40;42.10;;;26.22;50.18;96221.50;5015122;28;20037;-68
2022/06/06 09:51:27;;;;;;;2.78;1.70;;;28.80;42.50;;;26.30;49.89;96208.50;5013647;28;20053;-70
2022/06/06 10:00:49;;;;;;;4.15;2.00;;;30.20;42.10;;;27.14;49.08;96206.97;5022042;28;20045;-67
2022/06/06 10:03:59;;;;;;;4.72;1.50;;;31.00;39.50;;;27.51;49.55;96208.03;4992435;28;20034;-68
2022/06/06 10:07:21;;;;;;;2.83;1.55;;;31.60;39.40;;;28.07;47.75;96207.97;5005300;28;20163;-70
2022/06/06 10:10:12;;;;;;;3.10;1.45;;;32.40;37.70;;;28.63;45.69;96199.59;4954862;28;20101;-69
2022/06/06 10:13:17;;;;;;;2.97;1.23;;;32.40;36.30;;;29.04;47.13;96198.78;5018997;28;20133;-68
2022/06/06 10:16:04;;;;;;;2.85;1.50;;;33.00;37.40;;;29.30;44.69;96196.31;5020404;28;20037;-65
2022/06/06 10:19:30;;;;;;;3.67;1.40;;;33.10;35.70;;;29.66;43.82;96193.59;4994497;28;20045;-67
2022/06/06 10:22:36;;;;;;;2.83;1.58;;;33.10;36.00;;;29.51;43.66;96191.25;5000695;28;20033;-68
2022/06/06 10:25:07;;;;;;;4.13;1.65;;;32.20;36.30;;;29.73;46.69;96193.94;5022434;28;20149;-67
2022/06/06 10:27:41;;;;;;;2.38;1.38;;;33.20;35.60;;;30.16;42.80;96186.09;4995111;28;20049;-67
2022/06/06 10:30:18;;;;;;;2.67;1.40;;;34.10;34.70;;;30.64;42.33;96179.13;5002885;28;20033;-67
2022/06/06 10:33:05;;;;;;;3.22;1.65;;;34.70;33.90;;;30.91;40.63;96178.84;5011888;28;20126;-65
2022/06/06 10:35:47;;;;;;;2.17;1.45;;;33.90;33.80;;;30.68;39.70;96177.38;5026966;28;20034;-65
2022/06/06 10:38:35;;;;;;;2.35;1.20;;;33.20;34.00;;;30.50;41.10;96168.34;5007613;28;20034;-68
2022/06/06 10:41:42;;;;;;;1.85;1.40;;;32.60;35.60;;;30.07;41.38;96162.72;5007503;28;20045;-67
2022/06/06 10:44:31;;;;;;;5.15;1.80;;;32.00;37.60;;;29.91;41.81;96167.75;5011894;28;20104;-68
2022/06/06 10:47:37;;;;;;;2.60;1.48;;;32.20;37.20;;;30.35;40.57;96163.34;5030158;28;20037;-67
2022/06/06 10:50:19;;;;;;;2.22;1.40;;;33.60;34.20;;;30.80;43.69;96166.72;5013533;28;20045;-67
2022/06/06 10:53:12;;;;;;;1.92;1.10;;;34.50;34.40;;;30.84;40.14;96161.44;5021363;28;20066;-67
2022/06/06 10:56:15;;;;;;;4.90;1.48;;;33.60;33.50;;;31.23;39.92;96161.34;5017714;28;20074;-66
2022/06/06 10:59:17;;;;;;;2.45;1.45;;;34.60;33.60;;;31.83;38.28;96154.25;5023861;28;20129;-67
2022/06/06 11:02:27;;;;;;;2.45;1.30;;;35.40;31.90;;;32.47;38.60;96146.84;5028095;28;20060;-68
2022/06/06 11:05:21;;;;;;;4.93;1.60;;;35.90;32.60;;;33.08;37.43;96143.78;5013517;28;20033;-66
2022/06/06 11:08:18;;;;;;;1.20;1.10;;;36.60;30.90;;;33.44;35.06;96152.16;5020498;28;20027;-67
2022/06/06 11:11:21;;;;;;;2.05;1.30;;;36.40;29.10;;;33.32;36.50;96146.66;5017025;28;20041;-67
2022/06/06 11:14:05;;;;;;;3.00;1.15;;;35.80;30.80;;;32.79;35.96;96148.13;5015668;28;20034;-67
2022/06/06 11:17:15;;;;;;;2.97;1.30;;;34.90;31.50;;;32.22;35.28;96139.56;5005312;28;20109;-68
2022/06/06 11:20:29;;;;;;;3.63;1.40;;;33.80;32.50;;;31.65;36.15;96148.81;5010617;28;20085;-67
2022/06/06 11:23:20;;;;;;;1.63;1.20;;;33.30;33.30;;;31.39;37.82;96145.34;5028924;28;20078;-66
2022/06/06 11:26:41;;;;;;;5.28;1.75;;;33.20;34.50;;;31.03;37.97;96145.66;5010120;28;20038;-65
2022/06/06 11:29:25;;;;;;;1.77;1.27;;;32.70;35.20;;;30.95;37.94;96141.00;5031363;28;20034;-67
2022/06/06 11:31:54;;;;;;;2.60;1.15;;;33.20;34.10;;;31.08;38.81;96143.56;5001156;28;20037;-67
2022/06/06 11:34:53;;;;;;;2.45;1.30;;;33.70;34.00;;;31.35;37.39;96136.22;4991632;28;20422;-66
2022/06/06 11:38:17;;;;;;;2.53;1.20;;;33.80;33.90;;;31.29;38.16;96141.03;5015056;28;20095;-67
2022/06/06 11:40:51;;;;;;;3.13;1.60;;;33.70;34.90;;;31.12;37.88;96132.06;5030711;28;20061;-67
2022/06/06 11:43:28;;;;;;;2.35;1.23;;;33.10;34.40;;;31.16;37.86;96141.16;5001592;28;20034;-67
2022/06/06 11:46:23;;;;;;;2.80;1.30;;;33.80;34.10;;;31.17;37.55;96131.91;5037769;28;20037;-68